createdAt,value
2023-03-29T00:02:08.015Z,101769.19
2023-03-29T00:04:39.212Z,101776.28
2023-03-29T00:07:08.783Z,101766.44
2023-03-29T00:09:38.802Z,101771.53
2023-03-29T00:12:08.697Z,101782.59
2023-03-29T00:14:38.909Z,101773.72
2023-03-29T00:17:10.006Z,101782.16
2023-03-29T00:19:40.026Z,101781.00
2023-03-29T00:22:09.508Z,101774.25
2023-03-29T00:24:39.614Z,101777.53
2023-03-29T00:27:09.366Z,101779.31
2023-03-29T00:29:40.620Z,101777.44
2023-03-29T00:32:11.687Z,101779.03
2023-03-29T00:34:43.034Z,101775.53
2023-03-29T00:37:15.079Z,101771.97
2023-03-29T00:39:45.609Z,101776.91
2023-03-29T00:42:15.908Z,101780.47
2023-03-29T00:44:59.790Z,101784.88
2023-03-29T00:47:32.731Z,101780.41
2023-03-29T00:50:04.688Z,101781.56
2023-03-29T00:52:35.341Z,101775.53
2023-03-29T00:55:07.999Z,101781.72
2023-03-29T00:57:39.171Z,101776.50
2023-03-29T01:00:11.081Z,101775.63
2023-03-29T01:02:44.121Z,101774.03
2023-03-29T01:05:17.740Z,101776.78
2023-03-29T01:07:51.312Z,101773.28
2023-03-29T01:10:25.081Z,101769.88
2023-03-29T01:12:58.520Z,101774.72
2023-03-29T01:15:29.294Z,101766.91
2023-03-29T01:18:02.151Z,101765.09
2023-03-29T01:20:39.611Z,101767.53
2023-03-29T01:23:16.135Z,101762.06
2023-03-29T01:25:50.056Z,101757.13
2023-03-29T01:28:23.723Z,101748.25
2023-03-29T01:30:58.166Z,101754.63
2023-03-29T01:33:29.779Z,101760.63
2023-03-29T01:36:05.005Z,101754.81
2023-03-29T01:38:38.114Z,101755.69
2023-03-29T01:41:08.184Z,101755.50
2023-03-29T01:43:43.643Z,101748.19
2023-03-29T01:46:16.891Z,101744.53
2023-03-29T01:48:49.092Z,101743.44
2023-03-29T01:51:23.013Z,101751.16
2023-03-29T01:53:55.203Z,101753.84
2023-03-29T01:56:26.773Z,101753.84
2023-03-29T01:58:59.201Z,101763.97
2023-03-29T02:01:31.707Z,101755.84
2023-03-29T02:04:04.366Z,101750.75
2023-03-29T02:06:37.900Z,101759.25
2023-03-29T02:09:07.725Z,101757.38
2023-03-29T02:11:38.115Z,101763.94
2023-03-29T02:14:10.106Z,101759.56
2023-03-29T02:16:40.679Z,101763.06
2023-03-29T02:19:11.391Z,101758.75
2023-03-29T02:21:48.415Z,101758.75
2023-03-29T02:24:19.502Z,101756.16
2023-03-29T02:26:50.073Z,101768.78
2023-03-29T02:29:21.287Z,101771.13
2023-03-29T02:31:52.992Z,101770.97
2023-03-29T02:34:24.962Z,101771.84
2023-03-29T02:36:56.912Z,101763.97
2023-03-29T02:39:27.832Z,101761.19
2023-03-29T02:41:57.807Z,101759.47
2023-03-29T02:44:30.401Z,101758.19
2023-03-29T02:47:02.747Z,101754.47
2023-03-29T02:49:32.437Z,101748.28
2023-03-29T02:52:06.996Z,101749.16
2023-03-29T02:54:38.203Z,101741.47
2023-03-29T02:57:08.325Z,101740.66
2023-03-29T02:59:41.221Z,101746.56
2023-03-29T03:02:11.825Z,101747.38
2023-03-29T03:04:42.479Z,101748.38
2023-03-29T03:07:12.398Z,101752.22
2023-03-29T03:09:42.123Z,101746.22
2023-03-29T03:12:12.292Z,101748.56
2023-03-29T03:14:43.438Z,101744.19
2023-03-29T03:17:14.379Z,101747.03
2023-03-29T03:19:44.288Z,101751.72
2023-03-29T03:22:14.189Z,101748.84
2023-03-29T03:24:43.721Z,101748.47
2023-03-29T03:27:14.724Z,101746.31
2023-03-29T03:29:45.802Z,101736.03
2023-03-29T03:32:18.860Z,101749.63
2023-03-29T03:35:14.573Z,101748.38
2023-03-29T03:37:44.512Z,101746.13
2023-03-29T03:40:14.524Z,101748.44
2023-03-29T03:42:45.090Z,101749.16
2023-03-29T03:45:16.813Z,101745.00
2023-03-29T03:47:55.988Z,101751.53
2023-03-29T03:50:34.571Z,101740.25
2023-03-29T03:53:05.144Z,101740.59
2023-03-29T03:55:56.193Z,101738.69
2023-03-29T03:58:30.044Z,101748.00
2023-03-29T04:01:01.896Z,101748.63
2023-03-29T04:03:44.478Z,101759.06
2023-03-29T04:06:17.528Z,101749.94
2023-03-29T04:09:16.703Z,101752.34
2023-03-29T04:11:53.328Z,101754.06
2023-03-29T04:14:23.559Z,101755.38
2023-03-29T04:17:13.060Z,101754.19
2023-03-29T04:20:10.084Z,101760.06
2023-03-29T04:22:39.993Z,101752.09
2023-03-29T04:25:10.668Z,101758.97
2023-03-29T04:27:42.922Z,101752.09
2023-03-29T04:30:33.105Z,101752.69
2023-03-29T04:33:04.210Z,101750.91
2023-03-29T04:35:34.878Z,101751.63
2023-03-29T04:38:10.304Z,101754.47
2023-03-29T04:40:41.378Z,101747.72
2023-03-29T04:43:14.789Z,101756.59
2023-03-29T04:45:55.652Z,101755.78
2023-03-29T04:48:49.663Z,101747.53
2023-03-29T04:51:22.461Z,101748.44
2023-03-29T04:53:54.609Z,101752.13
2023-03-29T04:56:25.445Z,101747.25
2023-03-29T04:59:13.580Z,101746.06
2023-03-29T05:01:43.937Z,101750.94
2023-03-29T05:04:15.834Z,101745.16
2023-03-29T05:06:59.088Z,101739.97
2023-03-29T05:09:29.177Z,101743.34
2023-03-29T05:11:59.220Z,101740.75
2023-03-29T05:14:31.037Z,101741.75
2023-03-29T05:17:01.568Z,101734.38
2023-03-29T05:19:32.747Z,101739.47
2023-03-29T05:22:02.877Z,101741.13
2023-03-29T05:24:32.622Z,101736.88
2023-03-29T05:27:07.602Z,101735.34
2023-03-29T05:29:39.280Z,101735.66
2023-03-29T05:32:27.386Z,101728.25
2023-03-29T05:34:58.576Z,101727.19
2023-03-29T05:37:29.326Z,101736.16
2023-03-29T05:40:05.617Z,101731.34
2023-03-29T05:42:43.803Z,101739.34
2023-03-29T05:45:13.963Z,101735.59
2023-03-29T05:47:44.109Z,101735.97
2023-03-29T05:50:15.620Z,101732.84
2023-03-29T05:52:46.193Z,101735.22
2023-03-29T05:55:15.854Z,101739.31
2023-03-29T05:57:46.254Z,101729.50
2023-03-29T06:00:20.261Z,101736.03
2023-03-29T06:02:51.076Z,101734.78
2023-03-29T06:05:23.084Z,101727.06
2023-03-29T06:08:01.265Z,101730.53
2023-03-29T06:11:04.565Z,101728.25
2023-03-29T06:13:54.216Z,101728.41
2023-03-29T06:16:24.177Z,101728.94
2023-03-29T06:18:54.988Z,101716.03
2023-03-29T06:21:27.318Z,101717.28
2023-03-29T06:23:58.531Z,101718.34
2023-03-29T06:26:30.445Z,101728.50
2023-03-29T06:29:00.524Z,101714.25
2023-03-29T06:31:31.579Z,101715.63
2023-03-29T06:34:02.049Z,101722.91
2023-03-29T06:37:02.446Z,101719.59
2023-03-29T06:39:33.247Z,101720.53
2023-03-29T06:42:29.067Z,101722.63
2023-03-29T06:45:18.080Z,101719.63
2023-03-29T06:47:51.098Z,101715.94
2023-03-29T06:50:21.491Z,101710.91
2023-03-29T06:52:58.948Z,101703.84
2023-03-29T06:55:29.179Z,101705.38
2023-03-29T06:58:02.312Z,101710.75
2023-03-29T07:00:36.071Z,101709.41
2023-03-29T07:03:13.679Z,101710.38
2023-03-29T07:05:45.282Z,101700.41
2023-03-29T07:08:31.730Z,101649.09
2023-03-29T07:11:07.420Z,101684.56
2023-03-29T07:13:54.745Z,101675.91
2023-03-29T07:16:24.813Z,101676.22
2023-03-29T07:19:14.617Z,101684.56
2023-03-29T07:22:03.005Z,101675.22
2023-03-29T07:24:47.805Z,101673.38
2023-03-29T07:27:18.438Z,101667.91
2023-03-29T07:29:51.688Z,101670.19
2023-03-29T07:32:22.749Z,101673.31
2023-03-29T07:35:20.270Z,101672.88
2023-03-29T07:37:50.538Z,101669.16
2023-03-29T07:40:24.192Z,101659.38
2023-03-29T07:43:00.703Z,101656.66
2023-03-29T07:45:34.081Z,101654.28
2023-03-29T07:48:08.828Z,101639.34
2023-03-29T07:50:51.082Z,101635.16
2023-03-29T07:53:29.872Z,101637.50
2023-03-29T07:56:03.233Z,101634.69
2023-03-29T07:58:53.620Z,101637.25
2023-03-29T08:01:23.826Z,101635.53
2023-03-29T08:04:12.792Z,101629.34
2023-03-29T08:07:01.533Z,101637.66
2023-03-29T08:09:50.656Z,101636.78
2023-03-29T08:12:25.078Z,101635.13
2023-03-29T08:14:56.045Z,101637.53
2023-03-29T08:17:31.024Z,101632.69
2023-03-29T08:20:02.528Z,101630.47
2023-03-29T08:22:33.269Z,101627.38
2023-03-29T08:25:07.281Z,101622.22
2023-03-29T08:27:46.984Z,101620.97
2023-03-29T08:30:21.883Z,101624.09
2023-03-29T08:32:55.369Z,101617.97
2023-03-29T08:35:27.025Z,101618.06
2023-03-29T08:38:08.617Z,101611.72
2023-03-29T08:40:38.754Z,101611.75
2023-03-29T08:43:22.978Z,101613.59
2023-03-29T08:46:33.090Z,101599.63
2023-03-29T08:49:20.395Z,101603.25
2023-03-29T08:51:54.492Z,101595.28
2023-03-29T08:54:27.410Z,101590.81
2023-03-29T08:57:28.379Z,101596.97
2023-03-29T09:00:08.112Z,101582.91
2023-03-29T09:02:43.005Z,101584.69
2023-03-29T09:05:20.719Z,101587.28
2023-03-29T09:08:01.327Z,101582.81
2023-03-29T09:10:34.887Z,101577.56
2023-03-29T09:13:11.902Z,101586.38
2023-03-29T09:15:50.690Z,101575.63
2023-03-29T09:18:39.365Z,101581.09
2023-03-29T09:21:15.895Z,101582.66
2023-03-29T09:23:58.360Z,101576.41
2023-03-29T09:26:50.225Z,101584.44
2023-03-29T09:29:51.773Z,101590.81
2023-03-29T09:32:32.432Z,101581.97
2023-03-29T09:35:14.568Z,101581.97
2023-03-29T09:37:44.385Z,101572.25
2023-03-29T09:40:17.444Z,101578.34
2023-03-29T09:42:57.494Z,101578.47
2023-03-29T09:45:27.599Z,101571.19
2023-03-29T09:48:00.405Z,101570.44
2023-03-29T09:50:37.154Z,101569.44
2023-03-29T09:53:10.061Z,101571.94
2023-03-29T09:55:46.340Z,101557.16
2023-03-29T09:58:40.543Z,101559.88
2023-03-29T10:01:14.645Z,101554.53
2023-03-29T10:03:49.452Z,101543.81
2023-03-29T10:06:21.706Z,101549.25
2023-03-29T10:08:59.191Z,101541.28
2023-03-29T10:11:40.170Z,101535.00
2023-03-29T10:14:14.454Z,101535.91
2023-03-29T10:16:49.330Z,101527.84
2023-03-29T10:19:32.510Z,101534.25
2023-03-29T10:22:08.498Z,101532.44
2023-03-29T10:25:05.757Z,101522.72
2023-03-29T10:27:53.346Z,101523.28
2023-03-29T10:30:28.629Z,101523.88
2023-03-29T10:33:06.407Z,101523.94
2023-03-29T10:35:42.657Z,101515.00
2023-03-29T10:38:25.256Z,101514.97
2023-03-29T10:41:17.326Z,101516.75
2023-03-29T10:44:14.425Z,101513.25
2023-03-29T10:46:49.038Z,101511.66
2023-03-29T10:49:29.991Z,101506.44
2023-03-29T10:52:10.058Z,101509.09
2023-03-29T10:54:53.980Z,101496.56
2023-03-29T10:57:38.365Z,101498.50
2023-03-29T11:00:27.428Z,101495.09
2023-03-29T11:03:21.453Z,101485.38
2023-03-29T11:06:00.841Z,101489.78
2023-03-29T11:08:44.277Z,101480.97
2023-03-29T11:11:38.247Z,101485.44
2023-03-29T11:14:26.144Z,101478.41
2023-03-29T11:17:18.152Z,101483.56
2023-03-29T11:20:27.736Z,101470.28
2023-03-29T11:23:09.508Z,101466.00
2023-03-29T11:26:03.262Z,101465.06
2023-03-29T11:29:06.467Z,101456.31
2023-03-29T11:31:43.290Z,101458.91
2023-03-29T11:34:22.588Z,101447.44
2023-03-29T11:37:05.187Z,101448.31
2023-03-29T11:39:49.244Z,101440.38
2023-03-29T11:42:41.738Z,101450.94
2023-03-29T11:46:00.121Z,101435.78
2023-03-29T11:48:38.009Z,101432.22
2023-03-29T11:51:18.868Z,101433.06
2023-03-29T11:54:04.716Z,101424.38
2023-03-29T11:56:57.498Z,101425.09
2023-03-29T11:59:57.478Z,101424.22
2023-03-29T12:02:38.851Z,101423.44
2023-03-29T12:05:23.149Z,101418.00
2023-03-29T12:08:01.950Z,101425.00
2023-03-29T12:10:37.721Z,101416.28
2023-03-29T12:13:19.658Z,101408.38
2023-03-29T12:15:59.349Z,101412.72
2023-03-29T12:18:40.648Z,101418.16
2023-03-29T12:21:50.792Z,101412.88
2023-03-29T12:24:27.555Z,101417.16
2023-03-29T12:27:15.319Z,101421.59
2023-03-29T12:30:17.969Z,101410.91
2023-03-29T12:33:16.185Z,101403.00
2023-03-29T12:36:48.706Z,101400.34
2023-03-29T12:40:08.361Z,101402.19
2023-03-29T12:43:09.040Z,101399.53
2023-03-29T12:46:21.857Z,101399.41
2023-03-29T12:49:13.175Z,101401.16
2023-03-29T12:52:10.253Z,101396.72
2023-03-29T12:54:59.094Z,101384.47
2023-03-29T12:57:55.232Z,101378.44
2023-03-29T13:00:36.562Z,101368.78
2023-03-29T13:03:31.762Z,101372.34
2023-03-29T13:06:16.560Z,101375.03
2023-03-29T13:09:38.250Z,101373.25
2023-03-29T13:12:40.987Z,101370.56
2023-03-29T13:15:38.398Z,101374.91
2023-03-29T13:18:56.858Z,101370.47
2023-03-29T13:22:02.260Z,101364.34
2023-03-29T13:24:48.870Z,101377.63
2023-03-29T13:27:51.443Z,101359.09
2023-03-29T13:35:06.780Z,101360.88
2023-03-29T13:37:58.717Z,101355.53
2023-03-29T13:44:11.822Z,101347.56
2023-03-29T13:47:12.133Z,101350.19
2023-03-29T13:50:16.023Z,101349.34
2023-03-29T13:53:26.061Z,101340.53
2023-03-29T13:56:04.309Z,101338.78
2023-03-29T13:58:40.219Z,101335.22
2023-03-29T14:01:14.707Z,101348.47
2023-03-29T14:04:10.251Z,101329.88
2023-03-29T14:06:53.515Z,101322.81
2023-03-29T14:09:50.223Z,101327.22
2023-03-29T14:12:29.033Z,101321.06
2023-03-29T14:15:05.500Z,101316.66
2023-03-29T14:17:43.619Z,101312.25
2023-03-29T14:21:14.059Z,101313.97
2023-03-29T14:23:47.714Z,101318.41
2023-03-29T14:26:38.352Z,101317.41
2023-03-29T14:29:31.982Z,101304.19
2023-03-29T14:32:33.808Z,101303.38
2023-03-29T14:35:45.028Z,101298.88
2023-03-29T14:39:07.942Z,101291.81
2023-03-29T14:42:10.976Z,101286.50
2023-03-29T14:44:52.586Z,101284.72
2023-03-29T14:47:59.860Z,101282.06
2023-03-29T14:51:03.243Z,101280.28
2023-03-29T14:53:53.151Z,101284.66
2023-03-29T14:56:37.078Z,101282.00
2023-03-29T14:59:32.007Z,101273.16
2023-03-29T15:03:03.885Z,101276.69
2023-03-29T15:06:12.591Z,101270.50
2023-03-29T15:09:06.000Z,101267.84
2023-03-29T15:11:52.765Z,101258.16
2023-03-29T15:14:30.976Z,101266.97
2023-03-29T15:17:09.438Z,101259.03
2023-03-29T15:19:56.409Z,101259.03
2023-03-29T15:22:53.040Z,101264.28
2023-03-29T15:25:37.811Z,101262.50
2023-03-29T15:28:42.720Z,101256.34
2023-03-29T15:32:00.532Z,101258.09
2023-03-29T15:34:45.918Z,101261.59
2023-03-29T15:37:37.757Z,101265.97
2023-03-29T15:40:15.124Z,101258.00
2023-03-29T15:43:08.692Z,101253.53
2023-03-29T15:46:54.615Z,101247.34
2023-03-29T15:50:14.791Z,101256.16
2023-03-29T15:53:15.113Z,101249.13
2023-03-29T15:56:06.307Z,101253.50
2023-03-29T15:59:02.426Z,101249.03
2023-03-29T16:01:44.898Z,101242.88
2023-03-29T16:05:00.468Z,101251.69
2023-03-29T16:07:44.015Z,101243.75
2023-03-29T16:10:25.935Z,101233.16
2023-03-29T16:13:06.159Z,101246.34
2023-03-29T16:15:58.925Z,101241.94
2023-03-29T16:18:43.469Z,101229.63
2023-03-29T16:21:21.882Z,101229.63
2023-03-29T16:24:34.335Z,101234.88
2023-03-29T16:27:14.085Z,101224.28
2023-03-29T16:30:01.277Z,101224.25
2023-03-29T16:33:33.601Z,101218.94
2023-03-29T16:36:21.722Z,101224.22
2023-03-29T16:39:30.899Z,101225.94
2023-03-29T16:42:21.717Z,101219.72
2023-03-29T16:45:15.800Z,101210.91
2023-03-29T16:48:06.522Z,101212.63
2023-03-29T16:50:41.994Z,101212.59
2023-03-29T16:53:22.091Z,101206.41
2023-03-29T16:55:59.504Z,101209.88
2023-03-29T16:58:53.415Z,101212.53
2023-03-29T17:01:33.024Z,101216.00
2023-03-29T17:04:24.168Z,101213.31
2023-03-29T17:07:05.486Z,101212.41
2023-03-29T17:09:50.357Z,101208.84
2023-03-29T17:12:41.386Z,101207.91
2023-03-29T17:15:19.626Z,101207.03
2023-03-29T17:18:21.515Z,101210.53
2023-03-29T17:21:21.805Z,101219.31
2023-03-29T17:24:08.336Z,101201.69
2023-03-29T17:28:05.828Z,101198.94
2023-03-29T17:38:55.058Z,101198.81
2023-03-29T17:42:11.649Z,101199.63
2023-03-29T18:06:13.884Z,101203.72
2023-03-29T18:13:33.698Z,101208.09
2023-03-29T18:16:26.305Z,101213.31
2023-03-29T18:19:54.692Z,101210.66
2023-03-29T18:23:35.001Z,101212.38
2023-03-29T18:37:57.984Z,101208.81
2023-03-29T19:09:05.174Z,101176.72
2023-03-29T19:29:45.214Z,101174.59
2023-03-29T19:32:18.659Z,101163.19
2023-03-29T19:34:52.617Z,101167.47
2023-03-29T19:37:26.274Z,101161.34
2023-03-29T19:40:00.548Z,101158.72
2023-03-29T19:42:39.075Z,101162.22
2023-03-29T19:45:17.664Z,101147.25
2023-03-29T19:48:02.970Z,101159.50
2023-03-29T19:50:36.116Z,101153.38
2023-03-29T19:53:07.824Z,101156.00
2023-03-29T19:55:40.898Z,101149.88
2023-03-29T19:58:14.115Z,101142.84
2023-03-29T20:00:46.906Z,101143.72
2023-03-29T20:03:19.009Z,101143.78
2023-03-29T20:05:52.579Z,101142.06
2023-03-29T20:08:26.570Z,101135.91
2023-03-29T20:11:03.551Z,101129.75
2023-03-29T20:13:39.694Z,101125.38
2023-03-29T20:16:18.025Z,101121.84
2023-03-29T20:18:57.052Z,101115.69
2023-03-29T20:21:29.557Z,101119.22
2023-03-29T20:24:02.068Z,101118.31
2023-03-29T20:26:33.605Z,101109.53
2023-03-29T20:29:03.711Z,101108.66
2023-03-29T20:31:34.816Z,101106.94
2023-03-29T20:34:04.917Z,101108.69
2023-03-29T20:36:34.880Z,101105.19
2023-03-29T20:39:06.786Z,101103.44
2023-03-29T20:41:39.157Z,101105.19
2023-03-29T20:44:10.859Z,101099.88
2023-03-29T20:46:54.614Z,101091.09
2023-03-29T20:49:27.503Z,101086.72
2023-03-29T20:52:03.068Z,101084.09
2023-03-29T20:54:36.287Z,101089.34
2023-03-29T20:57:10.094Z,101075.25
2023-03-29T20:59:43.959Z,101084.03
2023-03-29T21:02:19.221Z,101080.50
2023-03-29T21:04:52.006Z,101082.28
2023-03-29T21:07:22.224Z,101076.97
2023-03-29T21:09:52.425Z,101080.53
2023-03-29T21:12:23.772Z,101084.91
2023-03-29T21:14:53.797Z,101081.38
2023-03-29T21:17:24.922Z,101073.47
2023-03-29T21:19:55.369Z,101078.75
2023-03-29T21:22:25.017Z,101077.88
2023-03-29T21:24:55.096Z,101071.72
2023-03-29T21:27:24.704Z,101067.34
2023-03-29T21:29:54.867Z,101071.78
2023-03-29T21:32:26.349Z,101068.22
2023-03-29T21:34:56.896Z,101056.81
2023-03-29T21:37:26.661Z,101059.53
2023-03-29T21:39:56.735Z,101055.13
2023-03-29T21:42:26.528Z,101050.72
2023-03-29T21:44:56.795Z,101048.13
2023-03-29T21:47:28.039Z,101040.22
2023-03-29T21:49:58.339Z,101041.16
2023-03-29T21:52:28.035Z,101040.28
2023-03-29T21:54:58.093Z,101042.97
2023-03-29T21:57:27.880Z,101039.47
2023-03-29T21:59:58.287Z,101035.97
2023-03-29T22:02:29.408Z,101040.38
2023-03-29T22:04:59.566Z,101041.28
2023-03-29T22:07:29.277Z,101040.41
2023-03-29T22:10:04.556Z,101039.50
2023-03-29T22:12:37.346Z,101037.78
2023-03-29T22:15:08.156Z,101039.56
2023-03-29T22:17:39.375Z,101034.28
2023-03-29T22:20:13.123Z,101031.63
2023-03-29T22:22:45.501Z,101024.56
2023-03-29T22:25:16.042Z,101019.34
2023-03-29T22:27:46.522Z,101018.47
2023-03-29T22:30:17.409Z,101005.31
2023-03-29T22:32:48.401Z,101009.75
2023-03-29T22:35:18.606Z,101009.75
2023-03-29T22:37:48.087Z,101014.16
2023-03-29T22:40:18.336Z,101003.53
2023-03-29T22:42:48.019Z,101010.56
2023-03-29T22:45:18.138Z,101003.56
2023-03-29T22:47:49.280Z,101002.69
2023-03-29T22:50:19.458Z,100998.28
2023-03-29T22:52:49.060Z,100998.28
2023-03-29T22:55:18.900Z,100992.13
2023-03-29T22:57:48.734Z,100991.19
2023-03-29T23:00:19.490Z,100999.97
2023-03-29T23:02:50.955Z,100986.78
2023-03-29T23:05:20.981Z,100991.13
2023-03-29T23:07:50.832Z,100989.41
2023-03-29T23:10:20.801Z,100990.25
2023-03-29T23:12:50.582Z,100983.22
2023-03-29T23:15:23.018Z,100986.66
2023-03-29T23:17:54.120Z,100983.19
2023-03-29T23:20:24.411Z,100977.94
2023-03-29T23:22:54.071Z,100971.72
2023-03-29T23:25:52.151Z,100981.31
2023-03-29T23:28:23.830Z,100981.31
2023-03-29T23:30:58.132Z,100976.94
2023-03-29T23:33:30.919Z,100973.41
2023-03-29T23:36:02.321Z,100922.13
2023-03-29T23:38:32.268Z,100972.44
2023-03-29T23:41:03.158Z,100975.91
2023-03-29T23:43:34.215Z,100973.25
2023-03-29T23:46:05.580Z,100974.06
2023-03-29T23:48:36.548Z,100976.66
2023-03-29T23:51:08.097Z,100970.47
2023-03-29T23:53:37.697Z,100975.69
2023-03-29T23:56:08.081Z,100973.91
2023-03-29T23:58:38.831Z,100966.00
